sensor_id;sensor_type;location;lat;lon;timestamp;temperature;humidity
10662;DHT22;5379;51.034;7.006;2023-07-28T04:34:58;20.90;99.90
10662;DHT22;5379;51.034;7.006;2023-07-28T04:37:26;21.00;99.90
10662;DHT22;5379;51.034;7.006;2023-07-28T04:39:53;21.00;99.90
10662;DHT22;5379;51.034;7.006;2023-07-28T04:42:20;21.00;99.90
10662;DHT22;5379;51.034;7.006;2023-07-28T04:44:47;21.10;99.90
10662;DHT22;5379;51.034;7.006;2023-07-28T04:47:13;21.20;99.90
10662;DHT22;5379;51.034;7.006;2023-07-28T04:49:42;21.30;99.90
10662;DHT22;5379;51.034;7.006;2023-07-28T04:52:09;21.40;99.90
10662;DHT22;5379;51.034;7.006;2023-07-28T04:54:36;21.30;99.90
10662;DHT22;5379;51.034;7.006;2023-07-28T04:57:03;21.30;99.90
10662;DHT22;5379;51.034;7.006;2023-07-28T04:59:30;21.20;99.90
10662;DHT22;5379;51.034;7.006;2023-07-28T05:01:57;21.40;99.90
10662;DHT22;5379;51.034;7.006;2023-07-28T05:04:24;21.40;99.90
10662;DHT22;5379;51.034;7.006;2023-07-28T05:06:52;21.50;99.90
10662;DHT22;5379;51.034;7.006;2023-07-28T05:09:19;21.70;99.90
10662;DHT22;5379;51.034;7.006;2023-07-28T05:11:46;21.90;99.90
10662;DHT22;5379;51.034;7.006;2023-07-28T05:14:13;21.80;99.90
10662;DHT22;5379;51.034;7.006;2023-07-28T05:16:40;21.90;99.90
10662;DHT22;5379;51.034;7.006;2023-07-28T05:19:07;22.30;99.90
10662;DHT22;5379;51.034;7.006;2023-07-28T05:21:34;22.40;99.90
10662;DHT22;5379;51.034;7.006;2023-07-28T05:24:02;22.50;99.90
10662;DHT22;5379;51.034;7.006;2023-07-28T05:26:29;22.40;99.90
10662;DHT22;5379;51.034;7.006;2023-07-28T05:28:56;22.70;99.90
10662;DHT22;5379;51.034;7.006;2023-07-28T05:31:23;22.90;99.90
10662;DHT22;5379;51.034;7.006;2023-07-28T05:33:50;23.00;99.90
10662;DHT22;5379;51.034;7.006;2023-07-28T05:36:16;23.50;99.90
10662;DHT22;5379;51.034;7.006;2023-07-28T05:38:43;23.60;99.90
10662;DHT22;5379;51.034;7.006;2023-07-28T05:41:11;23.40;99.90
10662;DHT22;5379;51.034;7.006;2023-07-28T05:43:38;23.80;99.90
10662;DHT22;5379;51.034;7.006;2023-07-28T05:46:05;23.60;99.90
10662;DHT22;5379;51.034;7.006;2023-07-28T05:48:32;23.60;99.90
10662;DHT22;5379;51.034;7.006;2023-07-28T05:50:59;23.80;99.90
10662;DHT22;5379;51.034;7.006;2023-07-28T05:53:26;24.10;99.90
10662;DHT22;5379;51.034;7.006;2023-07-28T05:55:53;24.10;99.90
10662;DHT22;5379;51.034;7.006;2023-07-28T05:58:21;24.10;99.90
10662;DHT22;5379;51.034;7.006;2023-07-28T06:00:48;24.20;99.90
10662;DHT22;5379;51.034;7.006;2023-07-28T06:03:16;24.60;99.90
10662;DHT22;5379;51.034;7.006;2023-07-28T06:05:43;24.40;99.90
10662;DHT22;5379;51.034;7.006;2023-07-28T06:08:10;24.50;99.90
10662;DHT22;5379;51.034;7.006;2023-07-28T06:10:37;24.60;99.90
10662;DHT22;5379;51.034;7.006;2023-07-28T06:13:04;24.60;99.90
10662;DHT22;5379;51.034;7.006;2023-07-28T06:15:32;24.70;99.90
10662;DHT22;5379;51.034;7.006;2023-07-28T06:18:00;24.90;99.90
10662;DHT22;5379;51.034;7.006;2023-07-28T06:20:28;24.90;99.90
10662;DHT22;5379;51.034;7.006;2023-07-28T06:22:55;24.90;99.90
10662;DHT22;5379;51.034;7.006;2023-07-28T06:25:22;25.10;99.90
10662;DHT22;5379;51.034;7.006;2023-07-28T06:27:49;25.20;99.90
10662;DHT22;5379;51.034;7.006;2023-07-28T06:30:16;25.20;99.90
10662;DHT22;5379;51.034;7.006;2023-07-28T06:32:44;25.20;99.90
10662;DHT22;5379;51.034;7.006;2023-07-28T06:35:11;25.00;99.90
10662;DHT22;5379;51.034;7.006;2023-07-28T06:37:38;25.10;99.90
10662;DHT22;5379;51.034;7.006;2023-07-28T06:40:06;25.20;99.90
10662;DHT22;5379;51.034;7.006;2023-07-28T06:42:35;25.30;99.90
10662;DHT22;5379;51.034;7.006;2023-07-28T06:45:03;25.30;99.90
10662;DHT22;5379;51.034;7.006;2023-07-28T06:47:30;25.50;99.90
10662;DHT22;5379;51.034;7.006;2023-07-28T06:49:58;25.60;99.90
10662;DHT22;5379;51.034;7.006;2023-07-28T06:52:25;25.60;99.90
10662;DHT22;5379;51.034;7.006;2023-07-28T06:54:52;25.40;99.90
10662;DHT22;5379;51.034;7.006;2023-07-28T06:57:20;25.10;99.90
10662;DHT22;5379;51.034;7.006;2023-07-28T06:59:47;25.00;99.90
10662;DHT22;5379;51.034;7.006;2023-07-28T07:02:14;25.00;99.90
10662;DHT22;5379;51.034;7.006;2023-07-28T07:04:41;24.90;99.90
10662;DHT22;5379;51.034;7.006;2023-07-28T07:07:09;25.10;99.90
10662;DHT22;5379;51.034;7.006;2023-07-28T07:09:36;25.30;99.90
10662;DHT22;5379;51.034;7.006;2023-07-28T07:12:04;25.30;99.90
10662;DHT22;5379;51.034;7.006;2023-07-28T07:14:31;25.40;99.90
10662;DHT22;5379;51.034;7.006;2023-07-28T07:16:59;25.40;99.90
10662;DHT22;5379;51.034;7.006;2023-07-28T07:19:27;25.50;99.90
10662;DHT22;5379;51.034;7.006;2023-07-28T07:21:54;25.30;99.90
10662;DHT22;5379;51.034;7.006;2023-07-28T07:24:22;25.20;99.90
10662;DHT22;5379;51.034;7.006;2023-07-28T07:26:49;25.10;99.90
10662;DHT22;5379;51.034;7.006;2023-07-28T07:29:17;25.10;99.90
10662;DHT22;5379;51.034;7.006;2023-07-28T07:31:44;25.20;99.90
10662;DHT22;5379;51.034;7.006;2023-07-28T07:34:11;25.30;99.90
10662;DHT22;5379;51.034;7.006;2023-07-28T07:36:38;25.20;99.90
10662;DHT22;5379;51.034;7.006;2023-07-28T07:39:05;25.50;99.90
10662;DHT22;5379;51.034;7.006;2023-07-28T07:41:33;25.40;99.90
10662;DHT22;5379;51.034;7.006;2023-07-28T07:44:00;25.50;99.90
10662;DHT22;5379;51.034;7.006;2023-07-28T07:46:28;25.40;99.90
10662;DHT22;5379;51.034;7.006;2023-07-28T07:48:54;25.30;99.90
10662;DHT22;5379;51.034;7.006;2023-07-28T07:51:21;25.50;99.90
10662;DHT22;5379;51.034;7.006;2023-07-28T07:53:49;25.60;99.90
10662;DHT22;5379;51.034;7.006;2023-07-28T07:56:16;25.70;99.90
10662;DHT22;5379;51.034;7.006;2023-07-28T07:58:45;25.60;99.90
10662;DHT22;5379;51.034;7.006;2023-07-28T08:01:11;25.70;99.90
10662;DHT22;5379;51.034;7.006;2023-07-28T08:03:39;25.60;99.90
10662;DHT22;5379;51.034;7.006;2023-07-28T08:06:06;25.70;99.90
10662;DHT22;5379;51.034;7.006;2023-07-28T08:08:35;25.70;99.90
10662;DHT22;5379;51.034;7.006;2023-07-28T08:11:02;25.70;99.90
10662;DHT22;5379;51.034;7.006;2023-07-28T08:13:29;25.70;99.90
10662;DHT22;5379;51.034;7.006;2023-07-28T08:15:57;25.30;99.90
10662;DHT22;5379;51.034;7.006;2023-07-28T08:18:24;25.20;99.90
10662;DHT22;5379;51.034;7.006;2023-07-28T08:20:51;25.30;99.90
10662;DHT22;5379;51.034;7.006;2023-07-28T08:23:18;25.50;99.90
10662;DHT22;5379;51.034;7.006;2023-07-28T08:25:45;25.60;99.90
10662;DHT22;5379;51.034;7.006;2023-07-28T08:28:12;25.80;99.90
10662;DHT22;5379;51.034;7.006;2023-07-28T08:30:39;25.70;99.90
10662;DHT22;5379;51.034;7.006;2023-07-28T08:33:07;25.70;99.90
10662;DHT22;5379;51.034;7.006;2023-07-28T08:35:34;25.70;99.90
10662;DHT22;5379;51.034;7.006;2023-07-28T08:38:01;25.70;99.90
10662;DHT22;5379;51.034;7.006;2023-07-28T08:40:29;25.50;99.90
10662;DHT22;5379;51.034;7.006;2023-07-28T08:42:56;25.50;99.90
10662;DHT22;5379;51.034;7.006;2023-07-28T08:45:23;25.50;99.90
10662;DHT22;5379;51.034;7.006;2023-07-28T08:47:51;25.50;99.90
10662;DHT22;5379;51.034;7.006;2023-07-28T08:50:19;25.70;99.90
10662;DHT22;5379;51.034;7.006;2023-07-28T08:52:47;25.80;99.90
10662;DHT22;5379;51.034;7.006;2023-07-28T08:55:16;25.80;99.90
10662;DHT22;5379;51.034;7.006;2023-07-28T08:57:43;25.80;99.90
10662;DHT22;5379;51.034;7.006;2023-07-28T09:00:11;25.70;99.90
10662;DHT22;5379;51.034;7.006;2023-07-28T09:02:40;25.70;99.90
10662;DHT22;5379;51.034;7.006;2023-07-28T09:05:19;25.80;99.90
10662;DHT22;5379;51.034;7.006;2023-07-28T09:07:49;25.90;99.90
10662;DHT22;5379;51.034;7.006;2023-07-28T09:10:17;26.00;99.90
10662;DHT22;5379;51.034;7.006;2023-07-28T09:12:45;25.90;99.90
10662;DHT22;5379;51.034;7.006;2023-07-28T09:15:12;26.00;99.90
10662;DHT22;5379;51.034;7.006;2023-07-28T09:17:42;26.00;99.90
10662;DHT22;5379;51.034;7.006;2023-07-28T09:20:13;25.90;99.90
10662;DHT22;5379;51.034;7.006;2023-07-28T09:22:41;25.90;99.90
10662;DHT22;5379;51.034;7.006;2023-07-28T09:25:13;25.50;99.90
10662;DHT22;5379;51.034;7.006;2023-07-28T09:27:40;25.50;99.90
10662;DHT22;5379;51.034;7.006;2023-07-28T09:30:08;25.30;99.90
10662;DHT22;5379;51.034;7.006;2023-07-28T09:32:35;25.50;99.90
10662;DHT22;5379;51.034;7.006;2023-07-28T09:35:07;25.40;99.90
10662;DHT22;5379;51.034;7.006;2023-07-28T09:37:37;25.20;99.90
10662;DHT22;5379;51.034;7.006;2023-07-28T09:40:08;25.60;99.90
10662;DHT22;5379;51.034;7.006;2023-07-28T09:42:37;25.80;99.90
10662;DHT22;5379;51.034;7.006;2023-07-28T09:45:05;25.50;99.90
10662;DHT22;5379;51.034;7.006;2023-07-28T09:47:33;25.30;99.90
10662;DHT22;5379;51.034;7.006;2023-07-28T09:50:02;25.70;99.90
10662;DHT22;5379;51.034;7.006;2023-07-28T09:52:34;25.70;99.90
10662;DHT22;5379;51.034;7.006;2023-07-28T09:55:07;25.70;99.90
10662;DHT22;5379;51.034;7.006;2023-07-28T09:57:39;25.90;99.90
10662;DHT22;5379;51.034;7.006;2023-07-28T10:00:08;26.00;99.90
10662;DHT22;5379;51.034;7.006;2023-07-28T10:02:37;26.30;99.90
10662;DHT22;5379;51.034;7.006;2023-07-28T10:05:06;26.00;99.90
10662;DHT22;5379;51.034;7.006;2023-07-28T10:07:34;26.00;99.90
10662;DHT22;5379;51.034;7.006;2023-07-28T10:10:03;26.00;99.90
10662;DHT22;5379;51.034;7.006;2023-07-28T10:12:39;26.10;99.90
10662;DHT22;5379;51.034;7.006;2023-07-28T10:15:08;26.30;99.90
10662;DHT22;5379;51.034;7.006;2023-07-28T10:17:38;26.30;99.90
10662;DHT22;5379;51.034;7.006;2023-07-28T10:20:07;26.30;99.90
10662;DHT22;5379;51.034;7.006;2023-07-28T10:22:53;26.40;99.90
10662;DHT22;5379;51.034;7.006;2023-07-28T10:25:22;26.30;99.90
10662;DHT22;5379;51.034;7.006;2023-07-28T10:27:51;26.30;99.90
10662;DHT22;5379;51.034;7.006;2023-07-28T10:30:18;26.10;99.90
10662;DHT22;5379;51.034;7.006;2023-07-28T10:32:48;26.30;99.90
10662;DHT22;5379;51.034;7.006;2023-07-28T10:35:23;26.10;99.90
10662;DHT22;5379;51.034;7.006;2023-07-28T10:37:51;26.10;99.90
10662;DHT22;5379;51.034;7.006;2023-07-28T10:40:31;26.10;99.90
10662;DHT22;5379;51.034;7.006;2023-07-28T10:43:01;26.20;99.90
10662;DHT22;5379;51.034;7.006;2023-07-28T10:45:30;26.30;99.90
10662;DHT22;5379;51.034;7.006;2023-07-28T10:47:58;26.30;99.90
10662;DHT22;5379;51.034;7.006;2023-07-28T10:50:28;25.70;99.90
10662;DHT22;5379;51.034;7.006;2023-07-28T10:52:55;25.70;99.90
10662;DHT22;5379;51.034;7.006;2023-07-28T10:55:24;25.40;99.90
10662;DHT22;5379;51.034;7.006;2023-07-28T10:57:52;25.40;99.90
10662;DHT22;5379;51.034;7.006;2023-07-28T11:00:22;25.60;99.90
10662;DHT22;5379;51.034;7.006;2023-07-28T11:02:51;25.80;99.90
10662;DHT22;5379;51.034;7.006;2023-07-28T11:05:20;25.90;99.90
10662;DHT22;5379;51.034;7.006;2023-07-28T11:07:49;26.00;99.90
10662;DHT22;5379;51.034;7.006;2023-07-28T11:10:16;25.50;99.90
10662;DHT22;5379;51.034;7.006;2023-07-28T11:12:45;25.50;99.90
10662;DHT22;5379;51.034;7.006;2023-07-28T11:15:14;25.30;99.90
10662;DHT22;5379;51.034;7.006;2023-07-28T11:17:44;25.50;99.90
10662;DHT22;5379;51.034;7.006;2023-07-28T11:20:15;25.50;99.90
10662;DHT22;5379;51.034;7.006;2023-07-28T11:22:43;25.90;99.90
10662;DHT22;5379;51.034;7.006;2023-07-28T11:25:11;25.90;99.90
10662;DHT22;5379;51.034;7.006;2023-07-28T11:27:39;26.00;99.90
10662;DHT22;5379;51.034;7.006;2023-07-28T11:30:08;26.10;99.90
10662;DHT22;5379;51.034;7.006;2023-07-28T11:32:37;26.00;99.90
10662;DHT22;5379;51.034;7.006;2023-07-28T11:35:07;26.20;99.90
10662;DHT22;5379;51.034;7.006;2023-07-28T11:37:35;26.30;99.90
10662;DHT22;5379;51.034;7.006;2023-07-28T11:40:03;26.30;99.90
10662;DHT22;5379;51.034;7.006;2023-07-28T11:42:33;26.30;99.90
10662;DHT22;5379;51.034;7.006;2023-07-28T11:45:01;26.40;99.90
10662;DHT22;5379;51.034;7.006;2023-07-28T11:47:28;26.40;99.90
10662;DHT22;5379;51.034;7.006;2023-07-28T11:49:56;26.30;99.90
10662;DHT22;5379;51.034;7.006;2023-07-28T11:52:30;26.30;99.90
10662;DHT22;5379;51.034;7.006;2023-07-28T11:54:58;26.40;99.90
10662;DHT22;5379;51.034;7.006;2023-07-28T11:57:26;26.30;99.90
10662;DHT22;5379;51.034;7.006;2023-07-28T11:59:53;26.10;99.90
10662;DHT22;5379;51.034;7.006;2023-07-28T12:02:25;26.10;99.90
10662;DHT22;5379;51.034;7.006;2023-07-28T12:04:52;26.10;99.90
10662;DHT22;5379;51.034;7.006;2023-07-28T12:07:27;25.90;99.90
10662;DHT22;5379;51.034;7.006;2023-07-28T12:09:56;25.30;99.90
10662;DHT22;5379;51.034;7.006;2023-07-28T12:12:26;25.20;99.90
10662;DHT22;5379;51.034;7.006;2023-07-28T12:14:54;25.20;99.90
10662;DHT22;5379;51.034;7.006;2023-07-28T12:17:22;25.00;99.90
10662;DHT22;5379;51.034;7.006;2023-07-28T12:20:02;25.20;99.90
10662;DHT22;5379;51.034;7.006;2023-07-28T12:22:36;25.10;99.90
10662;DHT22;5379;51.034;7.006;2023-07-28T12:25:05;25.10;99.90
10662;DHT22;5379;51.034;7.006;2023-07-28T12:27:32;25.30;99.90
10662;DHT22;5379;51.034;7.006;2023-07-28T12:29:59;25.20;99.90
10662;DHT22;5379;51.034;7.006;2023-07-28T12:32:26;24.70;99.90
10662;DHT22;5379;51.034;7.006;2023-07-28T12:34:53;24.70;99.90
10662;DHT22;5379;51.034;7.006;2023-07-28T12:37:20;24.60;99.90
10662;DHT22;5379;51.034;7.006;2023-07-28T12:39:48;24.60;99.90
10662;DHT22;5379;51.034;7.006;2023-07-28T12:42:16;24.60;99.90
10662;DHT22;5379;51.034;7.006;2023-07-28T12:44:44;24.70;99.90
10662;DHT22;5379;51.034;7.006;2023-07-28T12:47:11;24.70;99.90
10662;DHT22;5379;51.034;7.006;2023-07-28T12:49:38;25.00;99.90
10662;DHT22;5379;51.034;7.006;2023-07-28T12:52:06;25.10;99.90
10662;DHT22;5379;51.034;7.006;2023-07-28T12:54:34;25.00;99.90
10662;DHT22;5379;51.034;7.006;2023-07-28T12:57:01;24.90;99.90
10662;DHT22;5379;51.034;7.006;2023-07-28T12:59:30;24.60;99.90
10662;DHT22;5379;51.034;7.006;2023-07-28T13:01:56;24.40;99.90
10662;DHT22;5379;51.034;7.006;2023-07-28T13:04:23;24.60;99.90
10662;DHT22;5379;51.034;7.006;2023-07-28T13:06:50;24.90;99.90
10662;DHT22;5379;51.034;7.006;2023-07-28T13:09:17;24.70;99.90
10662;DHT22;5379;51.034;7.006;2023-07-28T13:11:44;24.60;99.90
10662;DHT22;5379;51.034;7.006;2023-07-28T13:14:11;24.50;99.90
10662;DHT22;5379;51.034;7.006;2023-07-28T13:16:40;24.80;99.90
10662;DHT22;5379;51.034;7.006;2023-07-28T13:19:07;24.50;99.90
10662;DHT22;5379;51.034;7.006;2023-07-28T13:21:34;24.60;99.90
10662;DHT22;5379;51.034;7.006;2023-07-28T13:24:00;24.60;99.90
10662;DHT22;5379;51.034;7.006;2023-07-28T13:26:28;24.70;99.90
10662;DHT22;5379;51.034;7.006;2023-07-28T13:28:56;24.50;99.90
10662;DHT22;5379;51.034;7.006;2023-07-28T13:31:24;24.20;99.90
10662;DHT22;5379;51.034;7.006;2023-07-28T13:33:52;24.00;99.90
10662;DHT22;5379;51.034;7.006;2023-07-28T13:36:19;24.10;99.90
10662;DHT22;5379;51.034;7.006;2023-07-28T13:38:46;24.50;99.90
10662;DHT22;5379;51.034;7.006;2023-07-28T13:41:14;24.40;99.90
10662;DHT22;5379;51.034;7.006;2023-07-28T13:43:41;24.40;99.90
10662;DHT22;5379;51.034;7.006;2023-07-28T13:46:08;24.30;99.90
10662;DHT22;5379;51.034;7.006;2023-07-28T13:48:37;24.40;99.90
10662;DHT22;5379;51.034;7.006;2023-07-28T13:51:06;24.50;99.90
10662;DHT22;5379;51.034;7.006;2023-07-28T13:53:33;24.50;99.90
10662;DHT22;5379;51.034;7.006;2023-07-28T13:56:00;24.90;99.90
10662;DHT22;5379;51.034;7.006;2023-07-28T13:58:27;25.00;99.90
10662;DHT22;5379;51.034;7.006;2023-07-28T14:00:54;25.00;99.90
10662;DHT22;5379;51.034;7.006;2023-07-28T14:03:21;24.90;99.90
10662;DHT22;5379;51.034;7.006;2023-07-28T14:05:48;25.20;99.90
10662;DHT22;5379;51.034;7.006;2023-07-28T14:08:17;25.10;99.90
10662;DHT22;5379;51.034;7.006;2023-07-28T14:10:44;25.20;99.90
10662;DHT22;5379;51.034;7.006;2023-07-28T14:13:11;25.00;99.90
10662;DHT22;5379;51.034;7.006;2023-07-28T14:15:39;24.90;99.90
10662;DHT22;5379;51.034;7.006;2023-07-28T14:18:06;24.70;99.90
10662;DHT22;5379;51.034;7.006;2023-07-28T14:20:32;24.40;99.90
10662;DHT22;5379;51.034;7.006;2023-07-28T14:23:00;24.50;99.90
10662;DHT22;5379;51.034;7.006;2023-07-28T14:25:28;24.50;99.90
10662;DHT22;5379;51.034;7.006;2023-07-28T14:27:55;24.10;99.90
10662;DHT22;5379;51.034;7.006;2023-07-28T14:30:22;24.50;99.90
10662;DHT22;5379;51.034;7.006;2023-07-28T14:32:49;24.80;99.90
10662;DHT22;5379;51.034;7.006;2023-07-28T14:35:16;24.10;99.90
10662;DHT22;5379;51.034;7.006;2023-07-28T14:37:43;23.60;99.90
10662;DHT22;5379;51.034;7.006;2023-07-28T14:40:11;23.80;99.90
10662;DHT22;5379;51.034;7.006;2023-07-28T14:42:39;24.70;99.90
10662;DHT22;5379;51.034;7.006;2023-07-28T14:45:07;24.70;99.90
10662;DHT22;5379;51.034;7.006;2023-07-28T14:47:34;25.10;99.90
10662;DHT22;5379;51.034;7.006;2023-07-28T14:50:01;25.50;99.90
10662;DHT22;5379;51.034;7.006;2023-07-28T14:52:28;25.50;99.90
10662;DHT22;5379;51.034;7.006;2023-07-28T14:54:55;25.20;99.90
10662;DHT22;5379;51.034;7.006;2023-07-28T14:57:22;25.20;99.90
10662;DHT22;5379;51.034;7.006;2023-07-28T14:59:50;25.50;99.90
10662;DHT22;5379;51.034;7.006;2023-07-28T15:02:17;25.70;99.90
10662;DHT22;5379;51.034;7.006;2023-07-28T15:04:44;25.80;99.90
10662;DHT22;5379;51.034;7.006;2023-07-28T15:07:11;25.80;99.90
10662;DHT22;5379;51.034;7.006;2023-07-28T15:09:39;25.70;99.90
10662;DHT22;5379;51.034;7.006;2023-07-28T15:12:06;25.60;99.90
10662;DHT22;5379;51.034;7.006;2023-07-28T15:14:33;25.70;99.90
10662;DHT22;5379;51.034;7.006;2023-07-28T15:17:01;25.90;99.90
10662;DHT22;5379;51.034;7.006;2023-07-28T15:19:28;26.10;99.90
10662;DHT22;5379;51.034;7.006;2023-07-28T15:21:55;26.20;99.90
10662;DHT22;5379;51.034;7.006;2023-07-28T15:24:23;26.20;99.90
10662;DHT22;5379;51.034;7.006;2023-07-28T15:26:50;26.20;99.90
10662;DHT22;5379;51.034;7.006;2023-07-28T15:29:18;26.10;99.90
10662;DHT22;5379;51.034;7.006;2023-07-28T15:31:44;26.10;99.90
10662;DHT22;5379;51.034;7.006;2023-07-28T15:34:13;25.80;99.90
10662;DHT22;5379;51.034;7.006;2023-07-28T15:36:40;26.00;99.90
10662;DHT22;5379;51.034;7.006;2023-07-28T15:39:07;25.90;99.90
10662;DHT22;5379;51.034;7.006;2023-07-28T15:41:34;26.00;99.90
10662;DHT22;5379;51.034;7.006;2023-07-28T15:44:01;26.20;99.90
10662;DHT22;5379;51.034;7.006;2023-07-28T15:46:27;25.90;99.90
10662;DHT22;5379;51.034;7.006;2023-07-28T15:48:57;26.10;99.90
10662;DHT22;5379;51.034;7.006;2023-07-28T15:51:25;26.20;99.90
10662;DHT22;5379;51.034;7.006;2023-07-28T15:53:52;26.50;99.90
10662;DHT22;5379;51.034;7.006;2023-07-28T15:56:19;26.50;99.90
10662;DHT22;5379;51.034;7.006;2023-07-28T15:58:46;26.60;99.90
10662;DHT22;5379;51.034;7.006;2023-07-28T16:01:13;26.70;99.90
10662;DHT22;5379;51.034;7.006;2023-07-28T16:03:40;26.70;99.90
10662;DHT22;5379;51.034;7.006;2023-07-28T16:06:07;26.60;99.90
10662;DHT22;5379;51.034;7.006;2023-07-28T16:08:35;26.40;99.90
10662;DHT22;5379;51.034;7.006;2023-07-28T16:11:02;25.90;99.90
10662;DHT22;5379;51.034;7.006;2023-07-28T16:13:29;26.00;99.90
10662;DHT22;5379;51.034;7.006;2023-07-28T16:15:58;26.20;99.90
10662;DHT22;5379;51.034;7.006;2023-07-28T16:18:25;25.50;99.90
10662;DHT22;5379;51.034;7.006;2023-07-28T16:20:53;24.80;99.90
10662;DHT22;5379;51.034;7.006;2023-07-28T16:23:19;25.00;99.90
10662;DHT22;5379;51.034;7.006;2023-07-28T16:25:48;25.60;99.90
10662;DHT22;5379;51.034;7.006;2023-07-28T16:28:15;25.90;99.90
10662;DHT22;5379;51.034;7.006;2023-07-28T16:30:42;26.00;99.90
10662;DHT22;5379;51.034;7.006;2023-07-28T16:33:10;25.90;99.90
10662;DHT22;5379;51.034;7.006;2023-07-28T16:35:37;26.30;99.90
10662;DHT22;5379;51.034;7.006;2023-07-28T16:38:04;26.30;99.90
10662;DHT22;5379;51.034;7.006;2023-07-28T16:40:31;26.60;99.90
10662;DHT22;5379;51.034;7.006;2023-07-28T16:42:59;26.50;99.90
10662;DHT22;5379;51.034;7.006;2023-07-28T16:45:26;26.60;99.90
10662;DHT22;5379;51.034;7.006;2023-07-28T16:47:53;26.70;99.90
10662;DHT22;5379;51.034;7.006;2023-07-28T16:50:20;26.50;99.90
10662;DHT22;5379;51.034;7.006;2023-07-28T16:52:47;26.70;99.90
10662;DHT22;5379;51.034;7.006;2023-07-28T16:55:14;26.70;99.90
10662;DHT22;5379;51.034;7.006;2023-07-28T16:57:41;26.70;99.90
10662;DHT22;5379;51.034;7.006;2023-07-28T17:00:10;26.70;99.90
10662;DHT22;5379;51.034;7.006;2023-07-28T17:02:37;26.70;99.90
10662;DHT22;5379;51.034;7.006;2023-07-28T17:05:05;26.60;99.90
10662;DHT22;5379;51.034;7.006;2023-07-28T17:07:33;26.60;99.90
10662;DHT22;5379;51.034;7.006;2023-07-28T17:10:00;26.60;99.90
10662;DHT22;5379;51.034;7.006;2023-07-28T17:12:27;26.40;99.90
10662;DHT22;5379;51.034;7.006;2023-07-28T17:14:54;26.60;99.90
10662;DHT22;5379;51.034;7.006;2023-07-28T17:17:22;26.60;99.90
10662;DHT22;5379;51.034;7.006;2023-07-28T17:19:49;26.60;99.90
10662;DHT22;5379;51.034;7.006;2023-07-28T17:22:16;26.50;99.90
10662;DHT22;5379;51.034;7.006;2023-07-28T17:24:43;26.50;99.90
10662;DHT22;5379;51.034;7.006;2023-07-28T17:27:15;26.50;99.90
10662;DHT22;5379;51.034;7.006;2023-07-28T17:29:42;26.30;99.90
10662;DHT22;5379;51.034;7.006;2023-07-28T17:32:09;26.10;99.90
10662;DHT22;5379;51.034;7.006;2023-07-28T17:34:39;26.10;99.90
10662;DHT22;5379;51.034;7.006;2023-07-28T17:37:06;26.30;99.90
10662;DHT22;5379;51.034;7.006;2023-07-28T17:39:33;26.40;99.90
10662;DHT22;5379;51.034;7.006;2023-07-28T17:42:00;26.30;99.90
10662;DHT22;5379;51.034;7.006;2023-07-28T17:44:27;26.40;99.90
10662;DHT22;5379;51.034;7.006;2023-07-28T17:46:53;27.00;99.90
10662;DHT22;5379;51.034;7.006;2023-07-28T17:49:22;26.60;99.90
10662;DHT22;5379;51.034;7.006;2023-07-28T17:51:51;26.40;99.90
10662;DHT22;5379;51.034;7.006;2023-07-28T17:54:18;26.10;99.90
10662;DHT22;5379;51.034;7.006;2023-07-28T17:56:45;26.10;99.90
10662;DHT22;5379;51.034;7.006;2023-07-28T17:59:12;26.00;99.90
10662;DHT22;5379;51.034;7.006;2023-07-28T18:01:39;26.10;99.90
10662;DHT22;5379;51.034;7.006;2023-07-28T18:04:05;26.00;99.90
10662;DHT22;5379;51.034;7.006;2023-07-28T18:06:32;26.10;99.90
10662;DHT22;5379;51.034;7.006;2023-07-28T18:09:01;26.10;99.90
10662;DHT22;5379;51.034;7.006;2023-07-28T18:11:31;26.10;99.90
10662;DHT22;5379;51.034;7.006;2023-07-28T18:13:58;26.10;99.90
10662;DHT22;5379;51.034;7.006;2023-07-28T18:16:25;26.10;99.90
10662;DHT22;5379;51.034;7.006;2023-07-28T18:18:52;26.30;99.90
10662;DHT22;5379;51.034;7.006;2023-07-28T18:21:19;26.40;99.90
10662;DHT22;5379;51.034;7.006;2023-07-28T18:23:46;26.30;99.90
10662;DHT22;5379;51.034;7.006;2023-07-28T18:26:15;26.40;99.90
10662;DHT22;5379;51.034;7.006;2023-07-28T18:28:49;26.50;99.90
10662;DHT22;5379;51.034;7.006;2023-07-28T18:31:20;26.40;99.90
10662;DHT22;5379;51.034;7.006;2023-07-28T18:33:47;26.40;99.90
10662;DHT22;5379;51.034;7.006;2023-07-28T18:36:14;26.40;99.90
10662;DHT22;5379;51.034;7.006;2023-07-28T18:38:42;26.30;99.90
10662;DHT22;5379;51.034;7.006;2023-07-28T18:41:09;26.40;99.90
10662;DHT22;5379;51.034;7.006;2023-07-28T18:43:37;26.50;99.90
10662;DHT22;5379;51.034;7.006;2023-07-28T18:46:04;26.60;99.90
10662;DHT22;5379;51.034;7.006;2023-07-28T18:48:31;26.60;99.90
10662;DHT22;5379;51.034;7.006;2023-07-28T18:50:58;26.60;99.90
10662;DHT22;5379;51.034;7.006;2023-07-28T18:53:28;26.70;99.90
10662;DHT22;5379;51.034;7.006;2023-07-28T18:55:55;26.70;99.90
10662;DHT22;5379;51.034;7.006;2023-07-28T18:58:22;26.70;99.90
10662;DHT22;5379;51.034;7.006;2023-07-28T19:00:50;26.70;99.90
10662;DHT22;5379;51.034;7.006;2023-07-28T19:03:18;26.70;99.90
10662;DHT22;5379;51.034;7.006;2023-07-28T19:05:44;26.70;99.90
10662;DHT22;5379;51.034;7.006;2023-07-28T19:08:11;26.80;99.90
10662;DHT22;5379;51.034;7.006;2023-07-28T19:10:38;26.70;99.90
10662;DHT22;5379;51.034;7.006;2023-07-28T19:13:09;26.80;99.90
10662;DHT22;5379;51.034;7.006;2023-07-28T19:15:36;26.80;99.90
10662;DHT22;5379;51.034;7.006;2023-07-28T19:18:05;26.80;99.90
10662;DHT22;5379;51.034;7.006;2023-07-28T19:20:37;26.80;99.90
10662;DHT22;5379;51.034;7.006;2023-07-28T19:23:05;26.90;99.90
10662;DHT22;5379;51.034;7.006;2023-07-28T19:28:01;26.90;99.90
10662;DHT22;5379;51.034;7.006;2023-07-28T19:30:28;27.00;99.90
10662;DHT22;5379;51.034;7.006;2023-07-28T19:32:55;27.00;99.90
10662;DHT22;5379;51.034;7.006;2023-07-28T19:35:23;27.00;99.90
10662;DHT22;5379;51.034;7.006;2023-07-28T19:37:50;26.90;99.90
10662;DHT22;5379;51.034;7.006;2023-07-28T19:40:17;26.90;99.90
10662;DHT22;5379;51.034;7.006;2023-07-28T19:42:44;27.00;99.90
10662;DHT22;5379;51.034;7.006;2023-07-28T19:45:11;27.00;99.90
10662;DHT22;5379;51.034;7.006;2023-07-28T19:47:38;27.00;99.90
10662;DHT22;5379;51.034;7.006;2023-07-28T19:50:06;27.00;99.90
10662;DHT22;5379;51.034;7.006;2023-07-28T19:52:34;27.00;99.90
10662;DHT22;5379;51.034;7.006;2023-07-28T19:55:01;26.90;99.90
10662;DHT22;5379;51.034;7.006;2023-07-28T19:57:29;26.90;99.90
10662;DHT22;5379;51.034;7.006;2023-07-28T19:59:56;27.00;99.90
10662;DHT22;5379;51.034;7.006;2023-07-28T20:02:23;27.00;99.90
10662;DHT22;5379;51.034;7.006;2023-07-28T20:04:51;27.00;99.90
10662;DHT22;5379;51.034;7.006;2023-07-28T20:07:18;27.00;99.90
10662;DHT22;5379;51.034;7.006;2023-07-28T20:09:46;27.00;99.90
10662;DHT22;5379;51.034;7.006;2023-07-28T20:12:13;27.00;99.90
10662;DHT22;5379;51.034;7.006;2023-07-28T20:14:40;26.90;99.90
10662;DHT22;5379;51.034;7.006;2023-07-28T20:17:07;26.90;99.90
10662;DHT22;5379;51.034;7.006;2023-07-28T20:19:34;26.90;99.90
10662;DHT22;5379;51.034;7.006;2023-07-28T20:22:01;26.90;99.90
10662;DHT22;5379;51.034;7.006;2023-07-28T20:24:28;26.80;99.90